sensor_id;sensor_type;location;lat;lon;timestamp;pressure;altitude;pressure_sealevel;temperature;humidity
56681;BME280;42558;52.388;13.390;2024-02-28T00:00:54;101390.02;;;3.29;100.00
56681;BME280;42558;52.388;13.390;2024-02-28T00:03:24;101390.73;;;3.30;100.00
56681;BME280;42558;52.388;13.390;2024-02-28T00:05:54;101391.59;;;3.29;100.00
56681;BME280;42558;52.388;13.390;2024-02-28T00:08:24;101391.52;;;3.25;100.00
56681;BME280;42558;52.388;13.390;2024-02-28T00:10:54;101387.17;;;3.25;100.00
56681;BME280;42558;52.388;13.390;2024-02-28T00:13:23;101378.26;;;3.21;100.00
56681;BME280;42558;52.388;13.390;2024-02-28T00:15:54;101378.17;;;3.19;100.00
56681;BME280;42558;52.388;13.390;2024-02-28T00:18:24;101378.96;;;3.17;100.00
56681;BME280;42558;52.388;13.390;2024-02-28T00:20:54;101383.36;;;3.19;100.00
56681;BME280;42558;52.388;13.390;2024-02-28T00:23:24;101382.22;;;3.17;100.00
56681;BME280;42558;52.388;13.390;2024-02-28T00:25:54;101381.23;;;3.18;100.00
56681;BME280;42558;52.388;13.390;2024-02-28T00:28:24;101381.85;;;3.13;100.00
56681;BME280;42558;52.388;13.390;2024-02-28T00:30:54;101381.30;;;3.13;100.00
56681;BME280;42558;52.388;13.390;2024-02-28T00:33:24;101380.48;;;3.11;100.00
56681;BME280;42558;52.388;13.390;2024-02-28T00:35:54;101381.98;;;3.09;100.00
56681;BME280;42558;52.388;13.390;2024-02-28T00:38:23;101383.54;;;3.12;100.00
56681;BME280;42558;52.388;13.390;2024-02-28T00:40:53;101387.55;;;3.12;100.00
56681;BME280;42558;52.388;13.390;2024-02-28T00:43:23;101387.52;;;3.06;100.00
56681;BME280;42558;52.388;13.390;2024-02-28T00:45:53;101394.71;;;3.10;100.00
56681;BME280;42558;52.388;13.390;2024-02-28T00:48:25;101392.83;;;3.14;100.00
56681;BME280;42558;52.388;13.390;2024-02-28T00:50:56;101394.77;;;3.18;100.00
56681;BME280;42558;52.388;13.390;2024-02-28T00:53:26;101400.48;;;3.21;100.00
56681;BME280;42558;52.388;13.390;2024-02-28T00:55:56;101397.61;;;3.15;100.00
56681;BME280;42558;52.388;13.390;2024-02-28T00:58:26;101403.80;;;3.14;100.00
56681;BME280;42558;52.388;13.390;2024-02-28T01:00:57;101401.44;;;3.06;100.00
56681;BME280;42558;52.388;13.390;2024-02-28T01:03:28;101405.90;;;3.15;100.00
56681;BME280;42558;52.388;13.390;2024-02-28T01:05:58;101404.64;;;3.17;100.00
56681;BME280;42558;52.388;13.390;2024-02-28T01:08:31;101399.45;;;3.14;100.00
56681;BME280;42558;52.388;13.390;2024-02-28T01:10:59;101395.10;;;3.14;100.00
56681;BME280;42558;52.388;13.390;2024-02-28T01:13:27;101385.90;;;3.11;100.00
56681;BME280;42558;52.388;13.390;2024-02-28T01:15:55;101388.48;;;3.07;100.00
56681;BME280;42558;52.388;13.390;2024-02-28T01:18:23;101391.15;;;3.05;100.00
56681;BME280;42558;52.388;13.390;2024-02-28T01:20:50;101399.07;;;3.04;100.00
56681;BME280;42558;52.388;13.390;2024-02-28T01:23:22;101399.32;;;3.06;100.00
56681;BME280;42558;52.388;13.390;2024-02-28T01:25:52;101395.04;;;3.03;100.00
56681;BME280;42558;52.388;13.390;2024-02-28T01:28:22;101400.17;;;3.05;100.00
56681;BME280;42558;52.388;13.390;2024-02-28T01:30:52;101399.27;;;3.05;100.00
56681;BME280;42558;52.388;13.390;2024-02-28T01:33:22;101398.71;;;3.04;100.00
56681;BME280;42558;52.388;13.390;2024-02-28T01:35:52;101398.74;;;3.04;100.00
56681;BME280;42558;52.388;13.390;2024-02-28T01:38:25;101401.88;;;3.05;100.00
56681;BME280;42558;52.388;13.390;2024-02-28T01:40:56;101402.48;;;3.09;100.00
56681;BME280;42558;52.388;13.390;2024-02-28T01:43:26;101402.17;;;3.10;100.00
56681;BME280;42558;52.388;13.390;2024-02-28T01:45:57;101400.81;;;3.11;100.00
56681;BME280;42558;52.388;13.390;2024-02-28T01:48:30;101393.55;;;3.11;100.00
56681;BME280;42558;52.388;13.390;2024-02-28T01:51:00;101391.61;;;3.11;100.00
56681;BME280;42558;52.388;13.390;2024-02-28T01:53:31;101392.47;;;3.10;100.00
56681;BME280;42558;52.388;13.390;2024-02-28T01:56:02;101391.81;;;3.01;100.00
56681;BME280;42558;52.388;13.390;2024-02-28T01:58:32;101396.55;;;2.99;100.00
56681;BME280;42558;52.388;13.390;2024-02-28T02:01:03;101397.88;;;3.01;100.00
56681;BME280;42558;52.388;13.390;2024-02-28T02:03:35;101395.38;;;3.03;100.00
56681;BME280;42558;52.388;13.390;2024-02-28T02:06:05;101394.51;;;3.06;100.00
56681;BME280;42558;52.388;13.390;2024-02-28T02:08:37;101392.77;;;3.09;100.00
56681;BME280;42558;52.388;13.390;2024-02-28T02:11:07;101389.08;;;3.05;100.00
56681;BME280;42558;52.388;13.390;2024-02-28T02:13:51;101384.58;;;3.06;100.00
56681;BME280;42558;52.388;13.390;2024-02-28T02:16:21;101384.09;;;3.03;100.00
56681;BME280;42558;52.388;13.390;2024-02-28T02:18:57;101385.49;;;3.03;100.00
56681;BME280;42558;52.388;13.390;2024-02-28T02:21:31;101381.40;;;3.02;100.00
56681;BME280;42558;52.388;13.390;2024-02-28T02:24:05;101385.79;;;2.95;100.00
56681;BME280;42558;52.388;13.390;2024-02-28T02:26:35;101392.20;;;2.95;100.00
56681;BME280;42558;52.388;13.390;2024-02-28T02:29:05;101395.48;;;2.99;100.00
56681;BME280;42558;52.388;13.390;2024-02-28T02:31:35;101388.95;;;2.99;100.00
56681;BME280;42558;52.388;13.390;2024-02-28T02:34:05;101387.48;;;2.98;100.00
56681;BME280;42558;52.388;13.390;2024-02-28T02:36:35;101395.67;;;2.98;100.00
56681;BME280;42558;52.388;13.390;2024-02-28T02:39:05;101405.86;;;2.97;100.00
56681;BME280;42558;52.388;13.390;2024-02-28T02:41:37;101412.40;;;2.96;100.00
56681;BME280;42558;52.388;13.390;2024-02-28T02:44:08;101419.33;;;2.96;100.00
56681;BME280;42558;52.388;13.390;2024-02-28T02:46:38;101421.86;;;2.98;100.00
56681;BME280;42558;52.388;13.390;2024-02-28T02:49:09;101423.27;;;2.95;100.00
56681;BME280;42558;52.388;13.390;2024-02-28T02:51:38;101429.86;;;2.98;100.00
56681;BME280;42558;52.388;13.390;2024-02-28T02:54:09;101427.14;;;2.96;100.00
56681;BME280;42558;52.388;13.390;2024-02-28T02:56:41;101426.14;;;2.93;100.00
56681;BME280;42558;52.388;13.390;2024-02-28T02:59:10;101425.15;;;2.94;100.00
56681;BME280;42558;52.388;13.390;2024-02-28T03:01:41;101426.98;;;2.93;100.00
56681;BME280;42558;52.388;13.390;2024-02-28T03:04:11;101426.13;;;2.90;100.00
56681;BME280;42558;52.388;13.390;2024-02-28T03:06:39;101426.64;;;2.87;100.00
56681;BME280;42558;52.388;13.390;2024-02-28T03:09:07;101425.64;;;2.85;100.00
56681;BME280;42558;52.388;13.390;2024-02-28T03:11:35;101427.60;;;2.85;100.00
56681;BME280;42558;52.388;13.390;2024-02-28T03:14:04;101424.16;;;2.83;100.00
56681;BME280;42558;52.388;13.390;2024-02-28T03:16:34;101420.98;;;2.82;100.00
56681;BME280;42558;52.388;13.390;2024-02-28T03:19:07;101422.30;;;2.81;100.00
56681;BME280;42558;52.388;13.390;2024-02-28T03:21:37;101424.77;;;2.81;100.00
56681;BME280;42558;52.388;13.390;2024-02-28T03:24:07;101422.94;;;2.77;100.00
56681;BME280;42558;52.388;13.390;2024-02-28T03:26:37;101429.50;;;2.79;100.00
56681;BME280;42558;52.388;13.390;2024-02-28T03:29:07;101437.52;;;2.80;100.00
56681;BME280;42558;52.388;13.390;2024-02-28T03:31:36;101441.95;;;2.81;100.00
56681;BME280;42558;52.388;13.390;2024-02-28T03:34:06;101448.00;;;2.84;100.00
56681;BME280;42558;52.388;13.390;2024-02-28T03:36:38;101444.77;;;2.82;100.00
56681;BME280;42558;52.388;13.390;2024-02-28T03:39:07;101444.08;;;2.82;100.00
56681;BME280;42558;52.388;13.390;2024-02-28T03:41:38;101444.77;;;2.76;100.00
56681;BME280;42558;52.388;13.390;2024-02-28T03:44:08;101444.42;;;2.76;100.00
56681;BME280;42558;52.388;13.390;2024-02-28T03:46:38;101443.14;;;2.78;100.00
56681;BME280;42558;52.388;13.390;2024-02-28T03:49:08;101436.73;;;2.72;100.00
56681;BME280;42558;52.388;13.390;2024-02-28T03:51:41;101432.72;;;2.65;100.00
56681;BME280;42558;52.388;13.390;2024-02-28T03:54:11;101434.63;;;2.62;100.00
56681;BME280;42558;52.388;13.390;2024-02-28T03:56:41;101435.23;;;2.67;100.00
56681;BME280;42558;52.388;13.390;2024-02-28T03:59:11;101440.23;;;2.69;100.00
56681;BME280;42558;52.388;13.390;2024-02-28T04:01:41;101438.11;;;2.72;100.00
56681;BME280;42558;52.388;13.390;2024-02-28T04:04:10;101443.71;;;2.69;100.00
56681;BME280;42558;52.388;13.390;2024-02-28T04:06:40;101446.64;;;2.72;100.00
56681;BME280;42558;52.388;13.390;2024-02-28T04:09:10;101445.51;;;2.67;100.00
56681;BME280;42558;52.388;13.390;2024-02-28T04:11:40;101443.53;;;2.63;100.00
56681;BME280;42558;52.388;13.390;2024-02-28T04:14:12;101448.43;;;2.67;100.00
56681;BME280;42558;52.388;13.390;2024-02-28T04:16:43;101451.84;;;2.69;100.00
56681;BME280;42558;52.388;13.390;2024-02-28T04:19:13;101456.10;;;2.70;100.00
56681;BME280;42558;52.388;13.390;2024-02-28T04:21:43;101459.29;;;2.68;100.00
56681;BME280;42558;52.388;13.390;2024-02-28T04:24:13;101460.02;;;2.66;100.00
56681;BME280;42558;52.388;13.390;2024-02-28T04:26:46;101461.28;;;2.67;100.00
56681;BME280;42558;52.388;13.390;2024-02-28T04:29:16;101456.16;;;2.72;100.00
56681;BME280;42558;52.388;13.390;2024-02-28T04:31:46;101453.24;;;2.72;100.00
56681;BME280;42558;52.388;13.390;2024-02-28T04:34:16;101452.92;;;2.70;100.00
56681;BME280;42558;52.388;13.390;2024-02-28T04:36:45;101452.55;;;2.69;100.00
56681;BME280;42558;52.388;13.390;2024-02-28T04:39:15;101449.72;;;2.65;100.00
56681;BME280;42558;52.388;13.390;2024-02-28T04:41:45;101459.39;;;2.70;100.00
56681;BME280;42558;52.388;13.390;2024-02-28T04:44:15;101461.02;;;2.68;100.00
56681;BME280;42558;52.388;13.390;2024-02-28T04:46:45;101469.39;;;2.66;100.00
56681;BME280;42558;52.388;13.390;2024-02-28T04:49:15;101474.75;;;2.69;100.00
56681;BME280;42558;52.388;13.390;2024-02-28T04:51:45;101484.25;;;2.71;100.00
56681;BME280;42558;52.388;13.390;2024-02-28T04:54:15;101484.67;;;2.69;100.00
56681;BME280;42558;52.388;13.390;2024-02-28T04:56:45;101487.44;;;2.66;100.00
56681;BME280;42558;52.388;13.390;2024-02-28T04:59:16;101486.69;;;2.65;100.00
56681;BME280;42558;52.388;13.390;2024-02-28T05:01:46;101490.42;;;2.66;100.00
56681;BME280;42558;52.388;13.390;2024-02-28T05:04:17;101490.04;;;2.66;100.00
56681;BME280;42558;52.388;13.390;2024-02-28T05:06:47;101493.86;;;2.69;100.00
56681;BME280;42558;52.388;13.390;2024-02-28T05:09:17;101495.45;;;2.69;100.00
56681;BME280;42558;52.388;13.390;2024-02-28T05:11:47;101500.84;;;2.67;100.00
56681;BME280;42558;52.388;13.390;2024-02-28T05:14:17;101503.31;;;2.61;100.00
56681;BME280;42558;52.388;13.390;2024-02-28T05:16:47;101508.83;;;2.63;100.00
56681;BME280;42558;52.388;13.390;2024-02-28T05:19:17;101517.38;;;2.61;100.00
56681;BME280;42558;52.388;13.390;2024-02-28T05:21:48;101522.80;;;2.59;100.00
56681;BME280;42558;52.388;13.390;2024-02-28T05:24:19;101524.48;;;2.58;100.00
56681;BME280;42558;52.388;13.390;2024-02-28T05:26:49;101526.86;;;2.54;100.00
56681;BME280;42558;52.388;13.390;2024-02-28T05:29:19;101526.49;;;2.54;100.00
56681;BME280;42558;52.388;13.390;2024-02-28T05:31:47;101522.04;;;2.52;100.00
56681;BME280;42558;52.388;13.390;2024-02-28T05:34:17;101528.63;;;2.52;100.00
56681;BME280;42558;52.388;13.390;2024-02-28T05:36:47;101526.70;;;2.52;100.00
56681;BME280;42558;52.388;13.390;2024-02-28T05:39:18;101524.49;;;2.50;100.00
56681;BME280;42558;52.388;13.390;2024-02-28T05:41:47;101522.64;;;2.47;100.00
56681;BME280;42558;52.388;13.390;2024-02-28T05:44:17;101529.17;;;2.46;100.00
56681;BME280;42558;52.388;13.390;2024-02-28T05:46:47;101536.36;;;2.45;100.00
56681;BME280;42558;52.388;13.390;2024-02-28T05:49:18;101536.69;;;2.44;100.00
56681;BME280;42558;52.388;13.390;2024-02-28T05:51:48;101534.97;;;2.47;100.00
56681;BME280;42558;52.388;13.390;2024-02-28T05:54:18;101533.94;;;2.48;100.00
56681;BME280;42558;52.388;13.390;2024-02-28T05:56:48;101538.16;;;2.52;100.00
56681;BME280;42558;52.388;13.390;2024-02-28T05:59:18;101542.92;;;2.54;100.00
56681;BME280;42558;52.388;13.390;2024-02-28T06:01:48;101548.27;;;2.53;100.00
56681;BME280;42558;52.388;13.390;2024-02-28T06:04:18;101549.27;;;2.52;100.00
56681;BME280;42558;52.388;13.390;2024-02-28T06:06:48;101554.02;;;2.53;100.00
56681;BME280;42558;52.388;13.390;2024-02-28T06:09:20;101556.66;;;2.51;100.00
56681;BME280;42558;52.388;13.390;2024-02-28T06:11:50;101558.98;;;2.52;100.00
56681;BME280;42558;52.388;13.390;2024-02-28T06:14:20;101561.52;;;2.50;100.00
56681;BME280;42558;52.388;13.390;2024-02-28T06:16:50;101571.71;;;2.50;100.00
56681;BME280;42558;52.388;13.390;2024-02-28T06:19:19;101582.85;;;2.47;100.00
56681;BME280;42558;52.388;13.390;2024-02-28T06:21:49;101584.33;;;2.52;100.00
56681;BME280;42558;52.388;13.390;2024-02-28T06:24:20;101586.89;;;2.48;100.00
56681;BME280;42558;52.388;13.390;2024-02-28T06:26:50;101588.70;;;2.49;100.00
56681;BME280;42558;52.388;13.390;2024-02-28T06:29:20;101593.88;;;2.49;100.00
56681;BME280;42558;52.388;13.390;2024-02-28T06:31:52;101595.29;;;2.46;100.00
56681;BME280;42558;52.388;13.390;2024-02-28T06:34:20;101598.36;;;2.48;100.00
56681;BME280;42558;52.388;13.390;2024-02-28T06:36:48;101598.80;;;2.47;100.00
56681;BME280;42558;52.388;13.390;2024-02-28T06:39:17;101600.77;;;2.45;100.00
56681;BME280;42558;52.388;13.390;2024-02-28T06:41:45;101596.99;;;2.42;100.00
56681;BME280;42558;52.388;13.390;2024-02-28T06:44:13;101599.81;;;2.43;100.00
56681;BME280;42558;52.388;13.390;2024-02-28T06:46:42;101602.66;;;2.45;100.00
56681;BME280;42558;52.388;13.390;2024-02-28T06:49:10;101604.39;;;2.39;100.00
56681;BME280;42558;52.388;13.390;2024-02-28T06:51:39;101603.84;;;2.38;100.00
56681;BME280;42558;52.388;13.390;2024-02-28T06:54:07;101600.71;;;2.41;100.00
56681;BME280;42558;52.388;13.390;2024-02-28T06:56:36;101602.23;;;2.40;100.00
56681;BME280;42558;52.388;13.390;2024-02-28T06:59:04;101604.71;;;2.44;100.00
56681;BME280;42558;52.388;13.390;2024-02-28T07:01:36;101612.04;;;2.45;100.00
56681;BME280;42558;52.388;13.390;2024-02-28T07:04:06;101615.75;;;2.46;100.00
56681;BME280;42558;52.388;13.390;2024-02-28T07:06:37;101615.14;;;2.41;100.00
56681;BME280;42558;52.388;13.390;2024-02-28T07:09:11;101612.67;;;2.41;100.00
56681;BME280;42558;52.388;13.390;2024-02-28T07:11:41;101618.86;;;2.42;100.00
56681;BME280;42558;52.388;13.390;2024-02-28T07:14:11;101621.13;;;2.46;100.00
56681;BME280;42558;52.388;13.390;2024-02-28T07:16:44;101622.75;;;2.44;100.00
56681;BME280;42558;52.388;13.390;2024-02-28T07:19:14;101616.59;;;2.42;100.00
56681;BME280;42558;52.388;13.390;2024-02-28T07:21:44;101616.66;;;2.38;100.00
56681;BME280;42558;52.388;13.390;2024-02-28T07:24:14;101622.77;;;2.39;100.00
56681;BME280;42558;52.388;13.390;2024-02-28T07:26:45;101623.65;;;2.36;100.00
56681;BME280;42558;52.388;13.390;2024-02-28T07:29:15;101624.14;;;2.41;100.00
56681;BME280;42558;52.388;13.390;2024-02-28T07:31:45;101623.68;;;2.39;100.00
56681;BME280;42558;52.388;13.390;2024-02-28T07:34:16;101620.83;;;2.29;100.00
56681;BME280;42558;52.388;13.390;2024-02-28T07:36:46;101621.77;;;2.34;100.00
56681;BME280;42558;52.388;13.390;2024-02-28T07:39:16;101622.70;;;2.34;100.00
56681;BME280;42558;52.388;13.390;2024-02-28T07:41:46;101625.03;;;2.41;100.00
56681;BME280;42558;52.388;13.390;2024-02-28T07:44:17;101623.55;;;2.42;100.00
56681;BME280;42558;52.388;13.390;2024-02-28T07:46:46;101622.92;;;2.50;100.00
56681;BME280;42558;52.388;13.390;2024-02-28T07:49:16;101625.42;;;2.54;100.00
56681;BME280;42558;52.388;13.390;2024-02-28T07:51:46;101627.49;;;2.57;100.00
56681;BME280;42558;52.388;13.390;2024-02-28T07:54:16;101628.80;;;2.53;100.00
56681;BME280;42558;52.388;13.390;2024-02-28T07:56:46;101637.05;;;2.48;100.00
56681;BME280;42558;52.388;13.390;2024-02-28T07:59:18;101636.98;;;2.44;100.00
56681;BME280;42558;52.388;13.390;2024-02-28T08:01:48;101641.70;;;2.48;100.00
56681;BME280;42558;52.388;13.390;2024-02-28T08:04:19;101653.81;;;2.50;100.00
56681;BME280;42558;52.388;13.390;2024-02-28T08:06:48;101650.46;;;2.46;100.00
56681;BME280;42558;52.388;13.390;2024-02-28T08:09:17;101647.96;;;2.42;100.00
56681;BME280;42558;52.388;13.390;2024-02-28T08:11:47;101652.05;;;2.38;100.00
56681;BME280;42558;52.388;13.390;2024-02-28T08:14:17;101655.29;;;2.31;100.00
56681;BME280;42558;52.388;13.390;2024-02-28T08:16:47;101659.53;;;2.29;100.00
56681;BME280;42558;52.388;13.390;2024-02-28T08:19:17;101662.27;;;2.29;100.00
56681;BME280;42558;52.388;13.390;2024-02-28T08:21:47;101662.17;;;2.27;100.00
56681;BME280;42558;52.388;13.390;2024-02-28T08:24:17;101665.87;;;2.26;100.00
56681;BME280;42558;52.388;13.390;2024-02-28T08:26:47;101665.91;;;2.23;100.00
56681;BME280;42558;52.388;13.390;2024-02-28T08:29:17;101670.17;;;2.19;100.00
56681;BME280;42558;52.388;13.390;2024-02-28T08:31:47;101672.25;;;2.16;100.00
56681;BME280;42558;52.388;13.390;2024-02-28T08:34:16;101678.02;;;2.17;100.00
56681;BME280;42558;52.388;13.390;2024-02-28T08:36:47;101676.61;;;2.09;100.00
56681;BME280;42558;52.388;13.390;2024-02-28T08:39:17;101686.32;;;2.06;100.00
56681;BME280;42558;52.388;13.390;2024-02-28T08:41:47;101692.52;;;2.08;100.00
56681;BME280;42558;52.388;13.390;2024-02-28T08:44:17;101698.08;;;2.08;100.00
56681;BME280;42558;52.388;13.390;2024-02-28T08:46:47;101697.32;;;2.10;100.00
56681;BME280;42558;52.388;13.390;2024-02-28T08:49:18;101694.59;;;2.10;100.00
56681;BME280;42558;52.388;13.390;2024-02-28T08:51:46;101693.52;;;2.05;100.00
56681;BME280;42558;52.388;13.390;2024-02-28T08:54:17;101698.89;;;2.07;100.00
56681;BME280;42558;52.388;13.390;2024-02-28T08:56:47;101697.77;;;2.08;100.00
56681;BME280;42558;52.388;13.390;2024-02-28T08:59:28;101697.05;;;2.08;100.00
56681;BME280;42558;52.388;13.390;2024-02-28T09:01:58;101695.14;;;2.08;100.00
56681;BME280;42558;52.388;13.390;2024-02-28T09:04:28;101698.46;;;2.06;100.00
56681;BME280;42558;52.388;13.390;2024-02-28T09:06:58;101699.98;;;2.06;100.00
56681;BME280;42558;52.388;13.390;2024-02-28T09:09:28;101692.98;;;2.01;100.00
56681;BME280;42558;52.388;13.390;2024-02-28T09:12:01;101690.06;;;2.02;100.00
56681;BME280;42558;52.388;13.390;2024-02-28T09:14:33;101680.33;;;2.15;100.00
56681;BME280;42558;52.388;13.390;2024-02-28T09:17:03;101678.85;;;2.05;100.00
56681;BME280;42558;52.388;13.390;2024-02-28T09:19:33;101681.86;;;2.01;100.00
56681;BME280;42558;52.388;13.390;2024-02-28T09:22:04;101686.94;;;2.07;100.00
56681;BME280;42558;52.388;13.390;2024-02-28T09:24:34;101687.49;;;2.11;100.00
56681;BME280;42558;52.388;13.390;2024-02-28T09:27:07;101681.70;;;2.18;100.00
56681;BME280;42558;52.388;13.390;2024-02-28T09:29:36;101682.83;;;2.22;100.00
56681;BME280;42558;52.388;13.390;2024-02-28T09:32:06;101682.19;;;2.29;100.00
56681;BME280;42558;52.388;13.390;2024-02-28T09:34:37;101685.05;;;2.30;100.00
56681;BME280;42558;52.388;13.390;2024-02-28T09:37:07;101684.00;;;2.27;100.00
56681;BME280;42558;52.388;13.390;2024-02-28T09:39:38;101684.66;;;2.21;100.00
56681;BME280;42558;52.388;13.390;2024-02-28T09:42:10;101689.70;;;2.24;100.00
56681;BME280;42558;52.388;13.390;2024-02-28T09:44:40;101690.95;;;2.24;100.00
56681;BME280;42558;52.388;13.390;2024-02-28T09:47:11;101687.52;;;2.31;100.00
56681;BME280;42558;52.388;13.390;2024-02-28T09:49:42;101688.86;;;2.38;100.00
56681;BME280;42558;52.388;13.390;2024-02-28T09:52:12;101695.29;;;2.33;100.00
56681;BME280;42558;52.388;13.390;2024-02-28T09:54:42;101697.83;;;2.34;100.00
56681;BME280;42558;52.388;13.390;2024-02-28T09:57:14;101702.52;;;2.43;100.00
56681;BME280;42558;52.388;13.390;2024-02-28T09:59:46;101699.64;;;2.36;100.00
56681;BME280;42558;52.388;13.390;2024-02-28T10:02:25;101706.33;;;2.37;100.00
56681;BME280;42558;52.388;13.390;2024-02-28T10:04:56;101710.64;;;2.39;100.00
56681;BME280;42558;52.388;13.390;2024-02-28T10:07:26;101713.06;;;2.45;100.00
56681;BME280;42558;52.388;13.390;2024-02-28T10:09:56;101713.20;;;2.48;100.00
56681;BME280;42558;52.388;13.390;2024-02-28T10:12:26;101715.98;;;2.31;100.00
56681;BME280;42558;52.388;13.390;2024-02-28T10:14:56;101715.27;;;2.30;100.00
56681;BME280;42558;52.388;13.390;2024-02-28T10:17:26;101712.33;;;2.39;100.00
56681;BME280;42558;52.388;13.390;2024-02-28T10:19:59;101717.46;;;2.46;100.00
56681;BME280;42558;52.388;13.390;2024-02-28T10:22:34;101718.96;;;2.60;100.00
56681;BME280;42558;52.388;13.390;2024-02-28T10:25:06;101720.42;;;2.63;100.00
56681;BME280;42558;52.388;13.390;2024-02-28T10:27:36;101725.48;;;2.58;100.00
56681;BME280;42558;52.388;13.390;2024-02-28T10:30:07;101723.88;;;2.57;100.00
56681;BME280;42558;52.388;13.390;2024-02-28T10:32:34;101726.52;;;2.69;100.00
56681;BME280;42558;52.388;13.390;2024-02-28T10:35:07;101728.21;;;2.69;100.00
56681;BME280;42558;52.388;13.390;2024-02-28T10:37:42;101729.51;;;2.73;100.00
56681;BME280;42558;52.388;13.390;2024-02-28T10:40:13;101734.08;;;2.74;100.00
56681;BME280;42558;52.388;13.390;2024-02-28T10:42:48;101735.86;;;2.71;100.00
56681;BME280;42558;52.388;13.390;2024-02-28T10:45:21;101735.81;;;2.77;100.00
56681;BME280;42558;52.388;13.390;2024-02-28T10:48:15;101735.28;;;2.79;100.00
56681;BME280;42558;52.388;13.390;2024-02-28T10:50:47;101734.59;;;2.93;100.00
56681;BME280;42558;52.388;13.390;2024-02-28T10:53:22;101734.02;;;2.93;100.00
56681;BME280;42558;52.388;13.390;2024-02-28T10:56:02;101736.15;;;2.88;100.00
56681;BME280;42558;52.388;13.390;2024-02-28T10:58:35;101731.04;;;2.92;100.00
56681;BME280;42558;52.388;13.390;2024-02-28T11:01:07;101736.00;;;2.97;100.00
56681;BME280;42558;52.388;13.390;2024-02-28T11:03:38;101741.91;;;2.91;100.00
56681;BME280;42558;52.388;13.390;2024-02-28T11:06:22;101743.85;;;2.92;100.00
56681;BME280;42558;52.388;13.390;2024-02-28T11:08:53;101749.85;;;2.96;100.00
56681;BME280;42558;52.388;13.390;2024-02-28T11:11:24;101747.40;;;3.05;100.00
56681;BME280;42558;52.388;13.390;2024-02-28T11:13:56;101746.55;;;3.02;100.00
56681;BME280;42558;52.388;13.390;2024-02-28T11:16:32;101747.49;;;2.89;100.00
56681;BME280;42558;52.388;13.390;2024-02-28T11:19:02;101743.63;;;2.88;100.00
56681;BME280;42558;52.388;13.390;2024-02-28T11:21:35;101742.60;;;3.03;100.00
56681;BME280;42558;52.388;13.390;2024-02-28T11:24:06;101744.86;;;3.09;100.00
56681;BME280;42558;52.388;13.390;2024-02-28T11:26:36;101743.52;;;3.04;100.00
56681;BME280;42558;52.388;13.390;2024-02-28T11:29:07;101744.22;;;3.04;100.00
56681;BME280;42558;52.388;13.390;2024-02-28T11:31:37;101746.11;;;3.07;100.00
56681;BME280;42558;52.388;13.390;2024-02-28T11:34:08;101743.72;;;3.07;100.00
56681;BME280;42558;52.388;13.390;2024-02-28T11:36:38;101743.53;;;3.01;100.00
56681;BME280;42558;52.388;13.390;2024-02-28T11:39:09;101747.63;;;3.03;100.00
56681;BME280;42558;52.388;13.390;2024-02-28T11:41:39;101749.48;;;2.99;100.00
56681;BME280;42558;52.388;13.390;2024-02-28T11:44:09;101748.65;;;2.93;100.00
56681;BME280;42558;52.388;13.390;2024-02-28T11:46:46;101751.65;;;3.00;100.00
56681;BME280;42558;52.388;13.390;2024-02-28T11:49:17;101752.16;;;3.09;100.00
56681;BME280;42558;52.388;13.390;2024-02-28T11:51:47;101756.59;;;3.11;100.00
56681;BME280;42558;52.388;13.390;2024-02-28T11:54:18;101757.37;;;2.94;100.00
56681;BME280;42558;52.388;13.390;2024-02-28T11:56:48;101756.30;;;2.93;100.00
56681;BME280;42558;52.388;13.390;2024-02-28T11:59:19;101756.09;;;2.87;100.00
56681;BME280;42558;52.388;13.390;2024-02-28T12:01:49;101759.96;;;3.03;100.00
56681;BME280;42558;52.388;13.390;2024-02-28T12:04:24;101757.39;;;2.97;100.00
56681;BME280;42558;52.388;13.390;2024-02-28T12:06:55;101758.79;;;2.97;100.00
56681;BME280;42558;52.388;13.390;2024-02-28T12:09:27;101758.34;;;2.93;100.00
56681;BME280;42558;52.388;13.390;2024-02-28T12:12:12;101759.65;;;2.91;100.00
56681;BME280;42558;52.388;13.390;2024-02-28T12:14:43;101763.64;;;3.06;100.00
56681;BME280;42558;52.388;13.390;2024-02-28T12:17:16;101762.17;;;3.11;100.00
56681;BME280;42558;52.388;13.390;2024-02-28T12:19:46;101760.56;;;3.24;100.00
56681;BME280;42558;52.388;13.390;2024-02-28T12:22:16;101761.27;;;3.19;100.00
56681;BME280;42558;52.388;13.390;2024-02-28T12:24:46;101764.65;;;3.29;100.00
56681;BME280;42558;52.388;13.390;2024-02-28T12:27:16;101762.36;;;3.20;100.00
56681;BME280;42558;52.388;13.390;2024-02-28T12:29:46;101754.91;;;2.99;100.00
56681;BME280;42558;52.388;13.390;2024-02-28T12:32:16;101760.80;;;3.08;100.00
56681;BME280;42558;52.388;13.390;2024-02-28T12:34:47;101756.15;;;3.17;100.00
56681;BME280;42558;52.388;13.390;2024-02-28T12:37:17;101755.64;;;3.23;100.00
56681;BME280;42558;52.388;13.390;2024-02-28T12:39:47;101750.75;;;3.09;100.00
56681;BME280;42558;52.388;13.390;2024-02-28T12:42:18;101754.98;;;3.04;100.00
56681;BME280;42558;52.388;13.390;2024-02-28T12:44:48;101758.38;;;3.17;100.00
56681;BME280;42558;52.388;13.390;2024-02-28T12:47:18;101761.48;;;3.08;100.00
56681;BME280;42558;52.388;13.390;2024-02-28T12:49:47;101763.10;;;3.06;100.00
56681;BME280;42558;52.388;13.390;2024-02-28T12:52:17;101765.55;;;3.24;100.00
56681;BME280;42558;52.388;13.390;2024-02-28T12:54:47;101760.86;;;3.29;100.00
56681;BME280;42558;52.388;13.390;2024-02-28T12:57:17;101766.20;;;3.09;100.00